Time;durP1;ratioP1;P1;durP2;ratioP2;P2;SDS_P1;SDS_P2;PMS_P1;PMS_P2;Temp;Humidity;BMP_temperature;BMP_pressure;BME280_temperature;BME280_humidity;BME280_pressure;Samples;Min_cycle;Max_cycle;Signal;HPM_P1;HPM_P2
2023/04/23 00:01:54;;;;;;;3.80;3.13;;;19.50;57.90;;;;;;5051189;28;20498;-29
2023/04/23 00:04:21;;;;;;;3.83;3.15;;;19.10;69.00;;;;;;5051294;28;20049;-30
2023/04/23 00:06:47;;;;;;;4.90;3.72;;;18.60;72.60;;;;;;5051832;28;20057;-29
2023/04/23 00:09:15;;;;;;;3.80;3.40;;;18.80;52.80;;;;;;5051687;28;20052;-30
2023/04/23 00:11:42;;;;;;;4.25;3.53;;;19.20;72.40;;;;;;5051844;28;20041;-30
2023/04/23 00:14:11;;;;;;;4.30;3.33;;;18.70;53.00;;;;;;5051134;28;20055;-30
2023/04/23 00:16:38;;;;;;;4.30;3.50;;;19.00;72.20;;;;;;5051579;28;20060;-30
2023/04/23 00:19:05;;;;;;;4.63;3.45;;;18.70;55.60;;;;;;5051360;28;20071;-30
2023/04/23 00:21:32;;;;;;;4.78;3.63;;;18.90;72.30;;;;;;5051531;28;20128;-30
2023/04/23 00:23:58;;;;;;;4.65;3.65;;;18.40;71.70;;;;;;5051201;28;20099;-29
2023/04/23 00:26:25;;;;;;;4.65;3.80;;;19.00;65.20;;;;;;5051414;28;20045;-29
2023/04/23 00:28:52;;;;;;;4.03;3.50;;;18.20;72.30;;;;;;5050917;28;20070;-30
2023/04/23 00:31:21;;;;;;;4.38;3.40;;;19.70;54.60;;;;;;5051515;28;20045;-29
2023/04/23 00:33:48;;;;;;;4.13;3.70;;;19.30;72.00;;;;;;5050837;28;20486;-30
2023/04/23 00:36:14;;;;;;;3.90;3.40;;;18.90;72.30;;;;;;5051134;28;20044;-30
2023/04/23 00:38:41;;;;;;;3.83;3.45;;;;;;;;;;5051312;28;20053;-31
2023/04/23 00:41:08;;;;;;;4.80;3.83;;;18.60;71.70;;;;;;5051290;28;20059;-29
2023/04/23 00:43:35;;;;;;;4.72;3.95;;;19.00;72.40;;;;;;5054616;28;20055;-29
2023/04/23 00:46:02;;;;;;;4.45;3.88;;;;;;;;;;5054501;28;20493;-30
2023/04/23 00:48:30;;;;;;;4.22;3.60;;;18.70;68.70;;;;;;5054871;28;20493;-29
2023/04/23 00:51:00;;;;;;;4.95;3.95;;;18.60;72.20;;;;;;5055130;28;20048;-29
2023/04/23 00:53:26;;;;;;;5.70;4.20;;;19.00;71.90;;;;;;5054909;28;20049;-29
2023/04/23 00:55:53;;;;;;;5.03;4.03;;;18.70;72.00;;;;;;5054733;28;20048;-29
2023/04/23 00:58:20;;;;;;;3.97;3.58;;;;;;;;;;5054153;28;20045;-30
2023/04/23 01:00:50;;;;;;;4.38;3.88;;;18.70;72.30;;;;;;5034823;28;20048;-29
2023/04/23 01:03:17;;;;;;;4.40;3.75;;;18.80;72.80;;;;;;5034588;28;20081;-29
2023/04/23 01:05:45;;;;;;;5.28;3.92;;;19.50;53.30;;;;;;5034787;28;20049;-30
2023/04/23 01:08:13;;;;;;;5.65;4.50;;;18.70;72.00;;;;;;5034850;28;20478;-29
2023/04/23 01:10:40;;;;;;;5.55;4.15;;;;;;;;;;5034668;28;20099;-30
2023/04/23 01:13:07;;;;;;;4.80;3.83;;;18.80;72.40;;;;;;5034983;28;20056;-29
2023/04/23 01:15:34;;;;;;;4.85;3.60;;;18.80;72.90;;;;;;5054328;28;20052;-29
2023/04/23 01:18:03;;;;;;;4.75;3.95;;;18.40;62.40;;;;;;5054170;28;20501;-29
2023/04/23 01:20:29;;;;;;;4.47;3.90;;;18.00;72.00;;;;;;5054354;28;20456;-29
2023/04/23 01:22:57;;;;;;;5.10;3.80;;;18.70;72.00;;;;;;5054006;28;20048;-29
2023/04/23 01:25:24;;;;;;;4.72;4.18;;;18.80;72.40;;;;;;5053816;28;20045;-30
2023/04/23 01:27:51;;;;;;;4.53;3.80;;;;;;;;;;5058870;28;20072;-30
2023/04/23 01:30:18;;;;;;;5.13;3.80;;;18.90;72.20;;;;;;5074257;28;20048;-30
2023/04/23 01:32:45;;;;;;;4.38;3.90;;;;;;;;;;5073944;28;20059;-30
2023/04/23 01:35:12;;;;;;;5.03;3.97;;;18.70;72.00;;;;;;5073918;28;20045;-30
2023/04/23 01:37:39;;;;;;;4.88;3.92;;;;;;;;;;5058032;28;20057;-29
2023/04/23 01:40:09;;;;;;;5.68;4.30;;;18.70;72.50;;;;;;5053665;28;20453;-29
2023/04/23 01:42:36;;;;;;;4.30;3.90;;;18.50;69.10;;;;;;5053655;28;20048;-30
2023/04/23 01:45:03;;;;;;;4.80;3.80;;;17.80;71.60;;;;;;5053646;28;20053;-30
2023/04/23 01:47:30;;;;;;;4.75;4.00;;;;;;;;;;5054069;28;20053;-30
2023/04/23 01:49:56;;;;;;;5.25;4.20;;;18.90;72.60;;;;;;5053751;28;20059;-30
2023/04/23 01:52:23;;;;;;;5.78;3.90;;;18.80;72.10;;;;;;5053621;28;20041;-29
2023/04/23 01:54:50;;;;;;;5.60;4.43;;;19.60;62.90;;;;;;5052355;28;20486;-30
2023/04/23 01:57:22;;;;;;;5.80;4.50;;;18.50;52.70;;;;;;5053795;28;20048;-29
2023/04/23 01:59:49;;;;;;;5.32;4.38;;;19.00;72.70;;;;;;5053432;28;20048;-29
2023/04/23 02:02:16;;;;;;;4.85;4.00;;;;;;;;;;5053352;28;20049;-30
2023/04/23 02:04:44;;;;;;;5.32;4.03;;;18.90;72.20;;;;;;5053436;28;20049;-30
2023/04/23 02:07:10;;;;;;;5.57;4.50;;;18.70;66.60;;;;;;5053345;28;20059;-30
2023/04/23 02:09:37;;;;;;;5.25;4.30;;;18.90;69.80;;;;;;5053558;28;20055;-29
2023/04/23 02:12:04;;;;;;;5.18;4.13;;;18.70;72.20;;;;;;5053287;28;20075;-30
2023/04/23 02:14:32;;;;;;;5.40;4.03;;;18.20;71.90;;;;;;5053428;28;20059;-29
2023/04/23 02:16:59;;;;;;;4.10;3.67;;;;;;;;;;5053091;28;20045;-29
2023/04/23 02:19:26;;;;;;;4.80;3.92;;;18.70;72.30;;;;;;5053314;28;20049;-29
2023/04/23 02:21:53;;;;;;;4.50;4.03;;;19.20;72.50;;;;;;5053141;28;20045;-30
2023/04/23 02:24:20;;;;;;;5.65;4.25;;;18.60;72.30;;;;;;5053012;28;20045;-29
2023/04/23 02:26:47;;;;;;;5.95;4.20;;;;;;;;;;5053158;28;20069;-29
2023/04/23 02:29:14;;;;;;;4.57;4.05;;;18.30;72.40;;;;;;5069128;28;20052;-29
2023/04/23 02:31:42;;;;;;;4.90;4.18;;;18.40;52.70;;;;;;5072848;28;20056;-30
2023/04/23 02:34:09;;;;;;;5.72;4.35;;;;;;;;;;5072712;28;20048;-30
2023/04/23 02:36:37;;;;;;;4.57;3.90;;;18.00;72.30;;;;;;5054747;28;20049;-30
2023/04/23 02:39:04;;;;;;;5.03;4.20;;;18.40;70.30;;;;;;5053062;28;20051;-30
2023/04/23 02:41:30;;;;;;;4.70;4.10;;;18.00;72.00;;;;;;5052905;28;20401;-29
2023/04/23 02:43:57;;;;;;;4.82;3.97;;;17.80;53.90;;;;;;5052548;28;20053;-30
2023/04/23 02:46:24;;;;;;;5.32;4.20;;;18.00;72.40;;;;;;5052909;28;20049;-29
2023/04/23 02:48:52;;;;;;;5.10;4.40;;;18.20;72.10;;;;;;5052631;28;20053;-30
2023/04/23 02:51:19;;;;;;;5.53;4.20;;;18.30;72.10;;;;;;5052277;28;20057;-29
2023/04/23 02:53:46;;;;;;;4.93;4.40;;;18.40;61.60;;;;;;5052317;28;20052;-29
2023/04/23 02:56:12;;;;;;;5.38;4.30;;;18.50;72.70;;;;;;5052560;28;20486;-30
2023/04/23 02:58:39;;;;;;;5.40;4.60;;;18.80;72.40;;;;;;5052354;28;20049;-29
2023/04/23 03:01:06;;;;;;;5.55;4.05;;;;;;;;;;5052429;28;20055;-30
2023/04/23 03:03:33;;;;;;;5.60;4.15;;;17.70;71.90;;;;;;5051894;28;20051;-30
2023/04/23 03:06:01;;;;;;;5.32;4.50;;;18.30;52.80;;;;;;5052304;28;20045;-29
2023/04/23 03:08:28;;;;;;;5.93;4.63;;;;;;;;;;5052323;28;20053;-31
2023/04/23 03:10:55;;;;;;;5.47;4.50;;;18.30;72.10;;;;;;5052282;28;20079;-30
2023/04/23 03:13:22;;;;;;;5.22;4.25;;;18.10;72.40;;;;;;5052022;28;20541;-30
2023/04/23 03:15:49;;;;;;;5.38;4.55;;;17.90;59.30;;;;;;5052067;28;20049;-30
2023/04/23 03:18:16;;;;;;;5.30;4.43;;;;;;;;;;5051898;28;20509;-29
2023/04/23 03:20:42;;;;;;;5.15;4.15;;;18.40;57.20;;;;;;5052318;28;20053;-30
2023/04/23 03:23:10;;;;;;;5.32;4.43;;;18.30;72.10;;;;;;5052147;28;20134;-30
2023/04/23 03:25:37;;;;;;;5.70;4.65;;;;;;;;;;5051780;28;20048;-30
2023/04/23 03:28:04;;;;;;;5.22;4.30;;;;;;;;;;5058147;28;20044;-30
2023/04/23 03:30:31;;;;;;;5.68;4.68;;;18.40;72.40;;;;;;5072042;28;20044;-30
2023/04/23 03:32:58;;;;;;;5.32;4.40;;;17.80;72.20;;;;;;5054727;28;20676;-29
2023/04/23 03:35:25;;;;;;;5.57;4.53;;;19.30;73.00;;;;;;5052055;28;20045;-30
2023/04/23 03:37:52;;;;;;;5.05;3.97;;;18.20;72.50;;;;;;5051383;28;20469;-29
2023/04/23 03:40:20;;;;;;;5.55;4.28;;;18.20;52.70;;;;;;5051847;28;20045;-30
2023/04/23 03:42:47;;;;;;;5.78;4.60;;;18.40;61.60;;;;;;5050872;28;20049;-30
2023/04/23 03:45:15;;;;;;;5.75;4.20;;;17.80;72.00;;;;;;5052054;28;20049;-29
2023/04/23 03:47:42;;;;;;;5.28;4.60;;;17.40;71.60;;;;;;5051994;28;20049;-29
2023/04/23 03:50:11;;;;;;;5.95;4.53;;;;;;;;;;5051751;28;20048;-30
2023/04/23 03:52:38;;;;;;;6.18;4.75;;;17.60;59.80;;;;;;5051577;28;20136;-30
2023/04/23 03:55:06;;;;;;;5.88;4.68;;;18.30;72.60;;;;;;5051517;28;20049;-29
2023/04/23 03:57:34;;;;;;;5.22;4.30;;;17.40;72.20;;;;;;5051768;28;20128;-30
2023/04/23 04:00:01;;;;;;;5.95;4.70;;;17.60;72.30;;;;;;5051875;28;20085;-30
2023/04/23 04:02:28;;;;;;;5.10;4.22;;;18.20;60.30;;;;;;5051481;28;20049;-30
2023/04/23 04:04:55;;;;;;;5.18;4.53;;;18.50;72.40;;;;;;5051701;28;20045;-29
2023/04/23 04:07:22;;;;;;;5.18;4.60;;;;;;;;;;5051645;28;20076;-31
2023/04/23 04:09:49;;;;;;;5.38;4.40;;;18.00;64.40;;;;;;5051441;28;20408;-30
2023/04/23 04:12:15;;;;;;;5.20;4.40;;;17.20;71.80;;;;;;5051184;28;20056;-29
2023/04/23 04:14:43;;;;;;;5.20;4.32;;;18.80;61.60;;;;;;5051864;28;20049;-29
2023/04/23 04:17:11;;;;;;;5.35;4.40;;;17.80;57.90;;;;;;5053337;28;20409;-30
2023/04/23 04:19:37;;;;;;;5.30;4.47;;;18.90;72.90;;;;;;5055588;28;20135;-29
2023/04/23 04:22:05;;;;;;;6.18;4.90;;;17.10;55.70;;;;;;5055200;28;20056;-30
2023/04/23 04:24:32;;;;;;;6.18;4.80;;;;;;;;;;5055238;28;20060;-31
2023/04/23 04:27:00;;;;;;;6.07;4.75;;;;;;;;;;5054918;28;20127;-30
2023/04/23 04:29:27;;;;;;;5.35;4.32;;;17.70;71.50;;;;;;5073333;28;20048;-29
2023/04/23 04:31:55;;;;;;;5.00;4.43;;;17.20;72.10;;;;;;5075254;28;20056;-29
2023/04/23 04:34:22;;;;;;;6.07;4.57;;;18.20;72.60;;;;;;5074907;28;20055;-29
2023/04/23 04:36:50;;;;;;;5.75;4.43;;;;;;;;;;5066510;28;20470;-30
2023/04/23 04:39:17;;;;;;;5.32;4.28;;;18.30;55.20;;;;;;5054679;28;20056;-30
2023/04/23 04:41:44;;;;;;;5.22;4.53;;;17.50;72.50;;;;;;5055038;28;20401;-30
2023/04/23 04:44:13;;;;;;;5.50;4.82;;;;;;;;;;5054832;28;20049;-30
2023/04/23 04:46:41;;;;;;;6.03;4.72;;;18.20;73.40;;;;;;5055138;28;20079;-29
2023/04/23 04:49:10;;;;;;;6.05;4.88;;;17.70;72.30;;;;;;5054889;28;20059;-30
2023/04/23 04:51:37;;;;;;;5.57;4.57;;;18.90;72.90;;;;;;5054939;28;20049;-29
2023/04/23 04:54:04;;;;;;;6.55;5.13;;;18.30;63.20;;;;;;5054427;28;20412;-30
2023/04/23 04:56:30;;;;;;;5.85;4.57;;;18.10;72.60;;;;;;5054905;28;20057;-29
2023/04/23 04:58:58;;;;;;;5.47;4.90;;;;;;;;;;5054862;28;20049;-30
2023/04/23 05:01:25;;;;;;;5.57;4.88;;;18.30;73.00;;;;;;5054773;28;20408;-29
2023/04/23 05:03:52;;;;;;;6.05;4.78;;;17.90;72.40;;;;;;5054744;28;20094;-30
2023/04/23 05:06:20;;;;;;;5.53;4.85;;;18.80;73.20;;;;;;5054805;28;20055;-29
2023/04/23 05:08:47;;;;;;;5.88;5.00;;;17.10;73.00;;;;;;5053961;28;20045;-29
2023/04/23 05:11:14;;;;;;;6.57;5.40;;;18.10;71.80;;;;;;5054585;28;20048;-29
2023/04/23 05:13:42;;;;;;;6.35;5.18;;;;;;;;;;5054293;28;20699;-29
2023/04/23 05:16:09;;;;;;;6.43;5.53;;;19.00;73.40;;;;;;5054541;28;20386;-29
2023/04/23 05:18:36;;;;;;;5.97;4.93;;;18.20;61.40;;;;;;5054197;28;20052;-30
2023/04/23 05:21:03;;;;;;;7.97;6.03;;;18.10;72.60;;;;;;5054251;28;20128;-30
2023/04/23 05:23:31;;;;;;;7.47;5.88;;;18.20;72.70;;;;;;5053835;28;20051;-29
2023/04/23 05:25:58;;;;;;;6.60;5.90;;;17.60;72.50;;;;;;5054366;28;20727;-29
2023/04/23 05:28:24;;;;;;;7.28;5.95;;;18.30;59.30;;;;;;5063013;28;20045;-30
2023/04/23 05:30:51;;;;;;;7.03;6.05;;;18.10;72.50;;;;;;5074175;28;20075;-30
2023/04/23 05:33:18;;;;;;;6.70;6.00;;;18.30;73.60;;;;;;5074195;28;20044;-29
2023/04/23 05:35:44;;;;;;;6.93;6.00;;;17.80;55.90;;;;;;5074464;28;20056;-30
2023/04/23 05:38:11;;;;;;;7.13;6.25;;;;;;;;;;5033593;28;20490;-30
2023/04/23 05:40:40;;;;;;;7.00;6.15;;;18.10;73.50;;;;;;5034204;28;20049;-29
2023/04/23 05:43:07;;;;;;;7.57;6.40;;;;;;;;;;5033816;28;20502;-30
2023/04/23 05:45:33;;;;;;;7.47;6.40;;;17.80;72.80;;;;;;5033916;28;20057;-30
2023/04/23 05:48:00;;;;;;;7.30;5.90;;;18.50;73.30;;;;;;5034110;28;20049;-29
2023/04/23 05:50:27;;;;;;;7.28;6.03;;;;;;;;;;5034031;28;20088;-30
2023/04/23 05:52:54;;;;;;;7.85;6.65;;;18.00;73.00;;;;;;5052631;28;20047;-29
2023/04/23 05:55:22;;;;;;;7.40;6.55;;;18.00;72.70;;;;;;5053805;28;20045;-29
2023/04/23 05:57:50;;;;;;;7.72;6.47;;;17.90;52.70;;;;;;5053668;28;20057;-30
2023/04/23 06:00:18;;;;;;;8.68;6.97;;;;;;;;;;5053577;28;20045;-30
2023/04/23 06:02:44;;;;;;;8.32;7.03;;;18.30;73.70;;;;;;5053356;28;20076;-30
2023/04/23 06:05:11;;;;;;;8.10;6.65;;;;;;;;;;5053471;28;20084;-30
2023/04/23 06:07:38;;;;;;;7.60;6.53;;;18.00;72.60;;;;;;5053176;28;20067;-29
2023/04/23 06:10:06;;;;;;;8.05;6.60;;;16.60;72.00;;;;;;5053453;28;20528;-30
2023/04/23 06:12:33;;;;;;;8.80;6.90;;;18.00;68.20;;;;;;5053083;28;20051;-29
2023/04/23 06:15:01;;;;;;;7.75;6.72;;;17.90;52.70;;;;;;5053366;28;20051;-31
2023/04/23 06:17:28;;;;;;;8.52;6.80;;;;;;;;;;5052688;28;20548;-31
2023/04/23 06:19:55;;;;;;;8.82;7.28;;;17.90;72.60;;;;;;5051897;28;20153;-29
2023/04/23 06:22:21;;;;;;;8.95;7.18;;;18.30;72.80;;;;;;5051852;28;20122;-29
2023/04/23 06:24:48;;;;;;;8.48;6.93;;;17.60;65.50;;;;;;5052325;28;20055;-29
2023/04/23 06:27:15;;;;;;;8.90;7.20;;;17.70;72.90;;;;;;5052104;28;20048;-30
2023/04/23 06:29:41;;;;;;;8.52;7.03;;;17.60;72.80;;;;;;5072002;28;20439;-29
2023/04/23 06:32:09;;;;;;;9.07;7.63;;;17.80;54.50;;;;;;5052786;28;20055;-30
2023/04/23 06:34:36;;;;;;;7.97;7.00;;;;;;;;;;5052140;28;20049;-30
2023/04/23 06:37:03;;;;;;;8.73;7.00;;;17.40;72.70;;;;;;5051474;28;20082;-29
2023/04/23 06:39:30;;;;;;;9.32;7.53;;;18.80;73.40;;;;;;5051157;28;20680;-29
2023/04/23 06:41:57;;;;;;;9.38;7.70;;;18.90;60.00;;;;;;5052203;28;20049;-30
2023/04/23 06:44:23;;;;;;;8.07;7.22;;;17.50;72.40;;;;;;5051588;28;20049;-29
2023/04/23 06:46:50;;;;;;;9.80;7.80;;;18.00;72.70;;;;;;5051329;28;20429;-29
2023/04/23 06:49:18;;;;;;;9.52;7.82;;;17.90;54.00;;;;;;5051879;28;20048;-29
2023/04/23 06:51:45;;;;;;;9.95;7.95;;;;;;;;;;5051668;28;20051;-30
2023/04/23 06:54:12;;;;;;;9.50;7.53;;;18.70;73.30;;;;;;5051492;28;20047;-29
2023/04/23 06:56:38;;;;;;;9.00;7.60;;;17.80;73.50;;;;;;5052018;28;20397;-29
2023/04/23 06:59:05;;;;;;;8.90;7.40;;;18.40;60.20;;;;;;5051817;28;20055;-30
2023/04/23 07:01:32;;;;;;;9.95;8.07;;;18.00;72.60;;;;;;5051445;28;20052;-29
2023/04/23 07:03:58;;;;;;;9.23;7.75;;;18.00;72.70;;;;;;5051272;28;20075;-29
2023/04/23 07:06:27;;;;;;;8.77;7.45;;;17.90;53.00;;;;;;5051293;28;20120;-30
2023/04/23 07:08:54;;;;;;;9.02;7.32;;;17.70;72.80;;;;;;5051689;28;20560;-30
2023/04/23 07:11:21;;;;;;;10.18;7.38;;;;;;;;;;5051831;28;20056;-29
2023/04/23 07:13:47;;;;;;;8.43;7.47;;;18.80;58.80;;;;;;5051543;28;20425;-30
2023/04/23 07:16:14;;;;;;;9.35;7.70;;;18.70;73.00;;;;;;5051073;28;20045;-29
2023/04/23 07:18:41;;;;;;;9.70;8.23;;;18.00;72.70;;;;;;5015742;28;1033909;-29
2023/04/23 07:21:08;;;;;;;9.63;7.70;;;17.60;60.60;;;;;;5052006;28;20052;-30
2023/04/23 07:23:36;;;;;;;8.50;7.13;;;18.10;72.70;;;;;;5051998;28;20055;-29
2023/04/23 07:26:02;;;;;;;9.93;7.80;;;16.80;72.00;;;;;;5052255;28;20077;-30
2023/04/23 07:28:29;;;;;;;9.57;7.68;;;18.40;73.30;;;;;;5062039;28;20055;-29
2023/04/23 07:30:56;;;;;;;9.43;7.53;;;;;;;;;;5052946;28;20051;-30
2023/04/23 07:33:24;;;;;;;10.23;7.50;;;16.90;58.50;;;;;;5051717;28;20045;-30
2023/04/23 07:35:51;;;;;;;9.27;7.68;;;17.60;72.00;;;;;;5051413;28;20053;-30
2023/04/23 07:38:18;;;;;;;9.82;7.82;;;17.60;72.50;;;;;;5052042;28;20060;-29
2023/04/23 07:40:46;;;;;;;9.40;7.70;;;16.80;62.60;;;;;;5051732;28;20509;-29
2023/04/23 07:43:13;;;;;;;8.70;7.22;;;18.10;68.60;;;;;;5051305;28;20076;-30
2023/04/23 07:45:40;;;;;;;9.30;7.70;;;17.70;72.60;;;;;;5051945;28;20049;-29
2023/04/23 07:48:07;;;;;;;9.50;7.85;;;18.00;61.40;;;;;;5051717;28;20048;-29
2023/04/23 07:50:33;;;;;;;9.30;7.50;;;16.80;72.30;;;;;;5051266;28;20045;-29
2023/04/23 07:53:00;;;;;;;9.85;7.57;;;;;;;;;;5051011;28;20047;-29
2023/04/23 07:55:27;;;;;;;9.18;7.55;;;17.40;67.90;;;;;;5052097;28;20120;-29
2023/04/23 07:57:55;;;;;;;9.18;8.07;;;18.50;73.80;;;;;;5051376;28;20056;-29
2023/04/23 08:00:22;;;;;;;8.93;7.43;;;18.00;72.50;;;;;;5051507;28;20055;-29
2023/04/23 08:02:50;;;;;;;10.65;8.32;;;16.70;71.80;;;;;;5051511;28;20241;-29
2023/04/23 08:05:17;;;;;;;8.93;7.45;;;;;;;;;;5051546;28;20049;-30
2023/04/23 08:07:44;;;;;;;8.90;7.35;;;18.30;73.00;;;;;;5051633;28;20059;-29
2023/04/23 08:10:10;;;;;;;9.18;7.60;;;18.30;72.70;;;;;;5051899;28;20515;-30
2023/04/23 08:12:37;;;;;;;9.32;7.55;;;;;;;;;;5050889;28;20049;-30
2023/04/23 08:15:06;;;;;;;10.38;7.70;;;17.90;72.80;;;;;;5051597;28;20059;-29
2023/04/23 08:17:33;;;;;;;8.55;7.47;;;;;;;;;;5051304;28;20049;-30
2023/04/23 08:20:00;;;;;;;9.95;7.93;;;19.10;73.00;;;;;;5051333;28;20051;-29
2023/04/23 08:22:27;;;;;;;9.15;7.38;;;18.00;72.90;;;;;;5051366;28;20049;-30
2023/04/23 08:24:54;;;;;;;9.68;7.43;;;;;;;;;;5051284;28;20049;-30
2023/04/23 08:27:21;;;;;;;8.75;7.00;;;16.90;67.40;;;;;;5051537;28;20057;-29
2023/04/23 08:29:48;;;;;;;9.45;7.40;;;18.10;60.60;;;;;;5053767;28;20053;-30
2023/04/23 08:32:16;;;;;;;9.23;7.80;;;18.00;72.40;;;;;;5071362;28;20044;-30
2023/04/23 08:34:42;;;;;;;8.85;7.43;;;18.20;72.90;;;;;;5071399;28;20420;-29
2023/04/23 08:37:09;;;;;;;8.13;6.80;;;16.90;71.90;;;;;;5071010;28;20048;-29
2023/04/23 08:39:36;;;;;;;10.00;7.70;;;18.00;65.60;;;;;;5063357;28;20047;-30
2023/04/23 08:42:07;;;;;;;8.98;7.15;;;17.60;73.10;;;;;;5051264;28;20059;-30
2023/04/23 08:44:33;;;;;;;9.63;7.70;;;18.10;72.50;;;;;;5051017;28;20055;-29
2023/04/23 08:47:01;;;;;;;9.15;7.47;;;;;;;;;;5051208;28;20049;-30
2023/04/23 08:49:29;;;;;;;9.02;7.30;;;19.20;73.20;;;;;;5050719;28;20040;-29
2023/04/23 08:51:56;;;;;;;8.82;6.93;;;18.10;72.70;;;;;;5051570;28;20448;-29
2023/04/23 08:54:25;;;;;;;9.18;7.10;;;18.20;52.90;;;;;;5050992;28;20072;-31
2023/04/23 08:56:52;;;;;;;8.20;7.00;;;18.90;72.50;;;;;;5051018;28;20477;-29
2023/04/23 08:59:21;;;;;;;8.85;6.82;;;18.60;56.90;;;;;;5051036;28;20055;-30
2023/04/23 09:01:48;;;;;;;8.77;7.35;;;18.00;72.30;;;;;;5051346;28;20102;-30
2023/04/23 09:04:18;;;;;;;9.70;7.47;;;;;;;;;;5054316;28;20049;-30
2023/04/23 09:06:46;;;;;;;9.15;7.22;;;18.30;53.40;;;;;;5054956;28;20071;-30
2023/04/23 09:09:13;;;;;;;9.15;7.75;;;;;;;;;;5054362;28;20045;-30
2023/04/23 09:11:40;;;;;;;9.52;7.20;;;18.00;71.70;;;;;;5054124;28;20051;-29
2023/04/23 09:14:07;;;;;;;8.70;7.45;;;18.00;72.00;;;;;;5054409;28;20645;-29
2023/04/23 09:16:34;;;;;;;9.25;7.30;;;;;;;;;;5054776;28;20103;-30
2023/04/23 09:19:00;;;;;;;9.02;7.07;;;18.60;72.20;;;;;;5054333;28;20048;-29
2023/04/23 09:21:27;;;;;;;8.93;7.22;;;;;;;;;;5054167;28;20044;-31
2023/04/23 09:23:55;;;;;;;9.95;7.80;;;18.70;71.70;;;;;;5053897;28;20056;-29
2023/04/23 09:26:22;;;;;;;9.48;7.50;;;19.00;71.90;;;;;;5054296;28;20059;-29
2023/04/23 09:28:49;;;;;;;8.25;6.80;;;18.90;71.80;;;;;;5066915;28;20052;-29
2023/04/23 09:31:21;;;;;;;7.88;6.50;;;18.10;72.10;;;;;;5074328;28;20055;-30
2023/04/23 09:33:52;;;;;;;7.60;6.25;;;18.30;68.80;;;;;;5073885;28;20060;-30
2023/04/23 09:36:20;;;;;;;8.25;6.65;;;19.00;71.70;;;;;;5069274;28;20048;-30
2023/04/23 09:38:47;;;;;;;8.48;7.07;;;18.50;71.50;;;;;;5053623;28;20053;-29
2023/04/23 09:41:25;;;;;;;8.32;6.28;;;18.80;51.70;;;;;;5053933;28;20049;-31
2023/04/23 09:43:53;;;;;;;8.50;6.30;;;19.20;51.80;;;;;;5053720;28;20049;-30
2023/04/23 09:46:32;;;;;;;7.15;6.15;;;19.70;52.00;;;;;;5054102;28;20045;-30
2023/04/23 09:49:00;;;;;;;7.68;6.30;;;18.10;70.40;;;;;;5053871;28;20043;-29
2023/04/23 09:51:27;;;;;;;7.38;6.07;;;18.50;71.30;;;;;;5053419;28;20485;-29
2023/04/23 09:53:54;;;;;;;8.18;6.75;;;;;;;;;;5053866;28;20051;-30
2023/04/23 09:56:21;;;;;;;8.35;6.57;;;19.10;70.90;;;;;;5053685;28;20051;-30
2023/04/23 09:58:49;;;;;;;8.80;6.70;;;19.10;71.10;;;;;;5053634;28;20048;-29
2023/04/23 10:01:16;;;;;;;7.00;5.68;;;19.90;71.40;;;;;;5053852;28;20052;-29
2023/04/23 10:03:43;;;;;;;6.80;5.35;;;;;;;;;;5053264;28;20132;-30
2023/04/23 10:06:13;;;;;;;6.82;5.97;;;19.30;65.40;;;;;;5053362;28;20049;-29
2023/04/23 10:08:40;;;;;;;7.65;5.90;;;19.30;70.20;;;;;;5053562;28;20049;-30
2023/04/23 10:11:07;;;;;;;6.20;5.43;;;18.80;63.10;;;;;;5053838;28;20049;-29
2023/04/23 10:13:34;;;;;;;6.95;5.20;;;19.70;71.40;;;;;;5052924;28;20063;-29
2023/04/23 10:16:02;;;;;;;6.82;5.13;;;19.20;50.80;;;;;;5052921;28;20049;-30
2023/04/23 10:18:30;;;;;;;6.13;5.07;;;19.20;50.70;;;;;;5052909;28;20051;-29
2023/04/23 10:20:56;;;;;;;6.32;5.20;;;19.80;70.30;;;;;;5053137;28;20076;-29
2023/04/23 10:23:23;;;;;;;5.90;5.00;;;;;;;;;;5052774;28;20053;-31
2023/04/23 10:25:51;;;;;;;5.80;5.07;;;18.90;70.10;;;;;;5053316;28;20515;-29
2023/04/23 10:28:18;;;;;;;5.75;5.00;;;20.00;57.80;;;;;;5061191;28;20053;-30
2023/04/23 10:30:44;;;;;;;5.88;5.20;;;19.30;70.40;;;;;;5073079;28;20051;-29
2023/04/23 10:33:12;;;;;;;6.05;5.05;;;20.00;70.40;;;;;;5072802;28;20048;-29
2023/04/23 10:35:39;;;;;;;5.13;4.55;;;20.10;71.20;;;;;;5061890;28;20132;-29
2023/04/23 10:38:06;;;;;;;5.35;4.30;;;19.90;56.80;;;;;;5052310;28;20079;-30
2023/04/23 10:40:32;;;;;;;5.28;4.32;;;19.70;70.10;;;;;;5053064;28;20057;-29
2023/04/23 10:42:59;;;;;;;5.70;4.40;;;18.40;69.70;;;;;;5052617;28;20140;-29
2023/04/23 10:45:26;;;;;;;4.57;4.18;;;19.50;62.30;;;;;;5052453;28;20037;-30
2023/04/23 10:47:54;;;;;;;5.20;4.03;;;;;;;;;;5052010;28;20485;-30
2023/04/23 10:50:24;;;;;;;4.70;4.20;;;19.40;66.10;;;;;;5052445;28;20391;-29
2023/04/23 10:52:52;;;;;;;4.47;3.67;;;19.50;67.30;;;;;;5052562;28;20064;-29
2023/04/23 10:55:20;;;;;;;4.25;3.83;;;18.30;69.10;;;;;;5052606;28;20056;-29
2023/04/23 10:57:57;;;;;;;4.50;3.88;;;19.30;69.60;;;;;;5052498;28;20084;-29
2023/04/23 11:00:24;;;;;;;4.28;3.45;;;19.40;69.60;;;;;;5052668;28;20065;-29
2023/04/23 11:02:51;;;;;;;4.05;3.60;;;19.70;60.70;;;;;;5052744;28;20410;-30
2023/04/23 11:05:18;;;;;;;4.65;3.63;;;;;;;;;;5051425;28;20049;-31
2023/04/23 11:08:02;;;;;;;3.75;3.33;;;19.50;50.40;;;;;;5052270;28;20075;-30
2023/04/23 11:10:30;;;;;;;4.22;3.20;;;;;;;;;;5052376;28;20056;-30
2023/04/23 11:12:57;;;;;;;3.55;3.15;;;;;;;;;;5052031;28;20080;-29
2023/04/23 11:15:24;;;;;;;5.32;3.20;;;;;;;;;;5052349;28;20045;-29
2023/04/23 11:17:59;;;;;;;4.05;3.38;;;19.10;70.00;;;;;;5051909;28;20508;-30
2023/04/23 11:20:25;;;;;;;3.53;3.08;;;19.50;69.30;;;;;;5051812;28;20482;-30
2023/04/23 11:22:53;;;;;;;3.90;2.95;;;19.40;69.50;;;;;;5051883;28;20048;-29
2023/04/23 11:25:21;;;;;;;3.22;2.75;;;20.10;69.90;;;;;;5051643;28;20055;-30
2023/04/23 11:27:50;;;;;;;5.22;3.40;;;19.20;70.20;;;;;;5055972;28;20489;-30
2023/04/23 11:30:19;;;;;;;3.25;2.78;;;20.50;69.90;;;;;;5072031;28;20045;-29
2023/04/23 11:32:47;;;;;;;4.00;2.90;;;20.60;66.40;;;;;;5071971;28;20040;-30
2023/04/23 11:35:14;;;;;;;4.05;3.28;;;19.60;69.30;;;;;;5060237;28;20045;-29
2023/04/23 11:37:41;;;;;;;4.32;2.88;;;19.70;69.40;;;;;;5051302;28;20055;-29
2023/04/23 11:40:10;;;;;;;3.75;2.85;;;18.50;65.80;;;;;;5051907;28;20057;-29
2023/04/23 11:42:45;;;;;;;4.00;2.63;;;19.10;69.30;;;;;;5051660;28;20053;-29
2023/04/23 11:45:19;;;;;;;3.22;2.58;;;18.60;56.40;;;;;;5051911;28;20071;-30
2023/04/23 11:47:46;;;;;;;3.22;2.53;;;;;;;;;;5051726;28;20524;-30
2023/04/23 11:50:17;;;;;;;3.05;2.65;;;20.10;52.60;;;;;;5051590;28;20045;-29
2023/04/23 11:52:44;;;;;;;3.30;2.63;;;19.70;57.30;;;;;;5051496;28;20056;-30
2023/04/23 11:55:12;;;;;;;2.67;2.45;;;19.60;70.20;;;;;;5051540;28;20041;-29
2023/04/23 11:57:41;;;;;;;3.40;2.67;;;19.90;69.80;;;;;;5051677;28;20041;-30
2023/04/23 12:00:14;;;;;;;3.67;2.60;;;19.50;50.50;;;;;;5051755;28;20051;-30
2023/04/23 12:02:50;;;;;;;3.40;2.75;;;19.80;69.70;;;;;;5051554;28;20049;-29
2023/04/23 12:05:19;;;;;;;2.85;2.40;;;19.40;70.40;;;;;;5051516;28;20045;-29
2023/04/23 12:07:48;;;;;;;2.90;2.60;;;19.50;69.70;;;;;;5051426;28;20056;-30
2023/04/23 12:10:19;;;;;;;2.50;2.30;;;19.40;70.40;;;;;;5051549;28;20501;-29
2023/04/23 12:12:49;;;;;;;2.95;2.40;;;19.40;69.90;;;;;;5051446;28;20056;-29
2023/04/23 12:15:16;;;;;;;2.58;2.25;;;18.20;69.40;;;;;;5051436;28;20529;-30
2023/04/23 12:17:43;;;;;;;3.05;2.38;;;;;;;;;;5051379;28;20053;-30
2023/04/23 12:20:12;;;;;;;2.67;2.40;;;20.20;70.50;;;;;;5051294;28;20052;-29
2023/04/23 12:22:39;;;;;;;2.72;2.10;;;20.20;58.20;;;;;;5051326;28;20049;-29
2023/04/23 12:25:08;;;;;;;2.83;2.50;;;19.20;70.10;;;;;;5051544;28;20048;-29
2023/04/23 12:27:39;;;;;;;4.07;2.40;;;19.60;69.80;;;;;;5053480;28;20061;-29
2023/04/23 12:30:07;;;;;;;2.65;2.25;;;19.60;63.00;;;;;;5071262;28;20045;-29
2023/04/23 12:32:34;;;;;;;2.42;2.15;;;19.20;70.50;;;;;;5055534;28;20460;-29
2023/04/23 12:35:00;;;;;;;3.25;2.40;;;18.90;70.40;;;;;;5051501;28;20128;-29
2023/04/23 12:37:29;;;;;;;2.67;2.13;;;19.40;50.80;;;;;;5051211;28;20055;-30
2023/04/23 12:39:58;;;;;;;2.90;2.10;;;19.60;62.20;;;;;;5055365;28;20490;-29
2023/04/23 12:42:24;;;;;;;2.67;2.22;;;19.40;70.20;;;;;;5054663;28;20052;-30
2023/04/23 12:44:54;;;;;;;2.92;2.20;;;20.20;70.10;;;;;;5055082;28;20075;-29
2023/04/23 12:47:21;;;;;;;2.97;2.13;;;19.60;69.90;;;;;;5055250;28;20610;-29
2023/04/23 12:49:51;;;;;;;2.85;1.92;;;19.50;50.70;;;;;;5054822;28;20041;-31
2023/04/23 12:52:18;;;;;;;1.85;1.70;;;19.60;70.00;;;;;;5054789;28;20052;-29
2023/04/23 12:54:45;;;;;;;2.67;2.08;;;19.70;70.00;;;;;;5054856;28;20052;-29
2023/04/23 12:57:13;;;;;;;2.53;1.90;;;;;;;;;;5054724;28;20063;-30
2023/04/23 12:59:39;;;;;;;2.50;2.00;;;18.70;69.30;;;;;;5054596;28;20490;-30
2023/04/23 13:02:07;;;;;;;2.25;2.00;;;19.50;50.80;;;;;;5054607;28;20056;-30
2023/04/23 13:04:35;;;;;;;2.83;2.25;;;19.50;50.80;;;;;;5054441;28;20055;-30
2023/04/23 13:07:02;;;;;;;3.00;2.10;;;20.00;59.70;;;;;;5054664;28;20063;-29